Time;durP1;ratioP1;P1;durP2;ratioP2;P2;SDS_P1;SDS_P2;PMS_P1;PMS_P2;Temp;Humidity;BMP_temperature;BMP_pressure;BME280_temperature;BME280_humidity;BME280_pressure;Samples;Min_cycle;Max_cycle;Signal;HPM_P1;HPM_P2
2023/03/22 00:02:07;;;;;;;7.90;4.00;;;11.40;99.90;;;;;;10429125;28;20466;-64
2023/03/22 00:07:08;;;;;;;5.90;3.92;;;11.40;99.90;;;;;;10429374;28;20053;-65
2023/03/22 00:12:08;;;;;;;5.40;3.35;;;11.40;99.90;;;;;;10426818;28;20533;-64
2023/03/22 00:17:10;;;;;;;5.28;3.38;;;11.40;99.90;;;;;;10428874;28;20029;-64
2023/03/22 00:22:10;;;;;;;6.95;3.40;;;11.40;99.90;;;;;;10429360;28;20049;-65
2023/03/22 00:27:11;;;;;;;5.97;3.28;;;11.30;99.90;;;;;;10425171;28;20544;-64
2023/03/22 00:32:12;;;;;;;6.07;3.83;;;11.30;99.90;;;;;;10430377;28;20493;-64
2023/03/22 00:37:15;;;;;;;6.18;3.40;;;11.30;99.90;;;;;;10429521;28;20029;-64
2023/03/22 00:42:15;;;;;;;4.93;2.78;;;11.30;99.90;;;;;;10435227;28;20116;-64
2023/03/22 00:47:16;;;;;;;5.70;2.88;;;11.30;99.90;;;;;;10432028;28;20055;-64
2023/03/22 00:52:16;;;;;;;4.78;2.80;;;11.40;99.90;;;;;;10427207;28;20022;-65
2023/03/22 00:57:17;;;;;;;8.25;3.15;;;11.30;99.90;;;;;;10428476;28;20083;-64
2023/03/22 01:02:18;;;;;;;4.20;2.80;;;11.30;99.90;;;;;;10429383;28;20083;-65
2023/03/22 01:07:20;;;;;;;6.82;3.10;;;11.30;99.90;;;;;;10431186;28;20027;-64
2023/03/22 01:12:20;;;;;;;4.10;2.35;;;11.30;99.90;;;;;;10424505;28;20389;-65
2023/03/22 01:17:21;;;;;;;5.93;2.67;;;11.30;99.90;;;;;;10430047;28;20025;-64
2023/03/22 01:22:22;;;;;;;4.45;2.50;;;11.30;99.90;;;;;;10434596;28;20037;-64
2023/03/22 01:27:22;;;;;;;5.05;2.28;;;11.30;99.90;;;;;;10432424;28;20033;-65
2023/03/22 01:32:23;;;;;;;6.35;2.40;;;11.30;99.90;;;;;;10440682;28;20020;-64
2023/03/22 01:37:26;;;;;;;3.13;2.17;;;11.30;99.90;;;;;;10431633;28;20216;-65
2023/03/22 01:42:27;;;;;;;4.88;2.03;;;11.30;99.90;;;;;;10434873;28;20105;-65
2023/03/22 01:47:28;;;;;;;4.03;1.98;;;11.30;99.90;;;;;;10426653;28;20055;-64
2023/03/22 01:52:28;;;;;;;3.92;2.55;;;11.30;99.90;;;;;;10439789;28;20017;-65
2023/03/22 01:57:32;;;;;;;5.38;2.20;;;11.20;99.90;;;;;;10431912;28;20062;-64
2023/03/22 02:02:33;;;;;;;3.40;1.80;;;11.30;99.90;;;;;;10427967;28;20652;-65
2023/03/22 02:07:35;;;;;;;5.63;1.70;;;11.20;99.90;;;;;;10436535;28;20032;-65
2023/03/22 02:12:49;;;;;;;3.22;1.50;;;11.30;99.90;;;;;;10436660;28;20056;-65
2023/03/22 02:18:15;;;;;;;5.03;1.85;;;11.30;99.90;;;;;;10433420;28;20017;-65
2023/03/22 02:23:52;;;;;;;2.97;1.65;;;11.20;99.90;;;;;;10431287;28;20091;-65
2023/03/22 02:29:11;;;;;;;3.83;1.50;;;11.20;99.90;;;;;;10431973;28;20021;-65
2023/03/22 02:34:26;;;;;;;2.92;1.55;;;11.20;99.90;;;;;;10426632;28;20013;-65
2023/03/22 02:39:43;;;;;;;4.70;2.13;;;11.20;99.90;;;;;;10421863;28;20076;-65
2023/03/22 02:45:21;;;;;;;3.33;1.50;;;11.20;99.90;;;;;;10435599;28;20039;-65
2023/03/22 02:50:29;;;;;;;5.22;1.70;;;11.20;99.90;;;;;;10431059;28;20070;-65
2023/03/22 02:55:33;;;;;;;2.85;1.30;;;11.20;99.90;;;;;;10433175;28;20024;-65
2023/03/22 03:00:37;;;;;;;5.50;1.45;;;11.20;99.90;;;;;;10436899;28;20488;-65
2023/03/22 03:05:43;;;;;;;3.92;1.50;;;11.20;99.90;;;;;;10431240;28;20033;-65
2023/03/22 03:10:45;;;;;;;2.85;1.67;;;11.20;99.90;;;;;;10428364;28;20029;-65
2023/03/22 03:15:51;;;;;;;2.45;1.35;;;11.20;99.90;;;;;;10424502;28;20408;-65
2023/03/22 03:21:29;;;;;;;5.72;1.33;;;11.20;99.90;;;;;;10430486;28;20018;-65
2023/03/22 03:26:41;;;;;;;4.97;1.50;;;11.20;99.90;;;;;;10428795;28;20037;-65
2023/03/22 03:31:49;;;;;;;4.55;1.63;;;11.20;99.90;;;;;;10426750;28;20026;-65
2023/03/22 03:37:01;;;;;;;7.63;1.70;;;11.10;99.90;;;;;;10431508;28;20017;-64
2023/03/22 03:42:05;;;;;;;3.70;1.50;;;11.10;99.90;;;;;;10426981;28;20029;-64
2023/03/22 03:47:08;;;;;;;3.90;1.60;;;11.10;99.90;;;;;;10431592;28;20637;-65
2023/03/22 03:52:08;;;;;;;7.57;1.88;;;11.10;99.90;;;;;;10430615;28;20018;-65
2023/03/22 03:57:09;;;;;;;2.60;1.45;;;11.80;99.90;;;;;;10426909;28;20103;-65
2023/03/22 04:02:10;;;;;;;3.67;1.70;;;11.10;99.90;;;;;;10432447;28;20037;-65
2023/03/22 04:07:11;;;;;;;2.58;1.35;;;11.10;99.90;;;;;;10426168;28;20090;-64
2023/03/22 04:12:11;;;;;;;3.78;1.42;;;11.10;99.90;;;;;;10424600;28;20044;-64
2023/03/22 04:17:12;;;;;;;3.38;1.67;;;11.10;99.90;;;;;;10426074;28;20022;-65
2023/03/22 04:22:13;;;;;;;3.28;1.60;;;11.10;99.90;;;;;;10428130;28;20052;-66
2023/03/22 04:27:17;;;;;;;4.07;1.83;;;11.10;99.90;;;;;;10426824;28;20033;-65
2023/03/22 04:32:21;;;;;;;4.03;1.83;;;11.10;99.90;;;;;;10427598;28;20603;-64
2023/03/22 04:37:25;;;;;;;7.20;2.50;;;11.10;99.90;;;;;;10432415;28;20017;-65
2023/03/22 04:42:26;;;;;;;3.35;1.88;;;11.10;99.90;;;;;;10429425;28;20048;-65
2023/03/22 04:47:27;;;;;;;4.80;2.05;;;11.10;99.90;;;;;;10435787;28;20100;-65
2023/03/22 04:52:27;;;;;;;3.88;2.05;;;11.10;99.90;;;;;;10434103;28;20020;-64
2023/03/22 04:57:28;;;;;;;6.07;2.55;;;11.10;99.90;;;;;;10436882;28;20021;-64
2023/03/22 05:02:29;;;;;;;5.13;2.33;;;11.10;99.90;;;;;;10442507;28;20032;-64
2023/03/22 05:07:29;;;;;;;6.03;2.60;;;11.10;99.90;;;;;;10433284;28;20025;-65
2023/03/22 05:12:30;;;;;;;6.40;3.22;;;11.10;99.90;;;;;;10437592;28;20365;-65
2023/03/22 05:17:31;;;;;;;6.03;2.90;;;11.10;99.90;;;;;;10435328;28;20062;-64
2023/03/22 05:22:33;;;;;;;6.18;3.08;;;11.10;99.90;;;;;;10431261;28;20048;-64
2023/03/22 05:27:34;;;;;;;8.20;3.25;;;11.10;99.90;;;;;;10428412;28;20501;-65
2023/03/22 05:32:36;;;;;;;7.05;3.35;;;11.10;99.90;;;;;;10439302;28;20119;-64
2023/03/22 05:37:37;;;;;;;6.93;3.25;;;11.10;99.90;;;;;;10430785;28;20025;-65
2023/03/22 05:42:37;;;;;;;6.53;3.15;;;11.10;99.90;;;;;;10433862;28;21149;-64
2023/03/22 05:47:38;;;;;;;6.72;3.72;;;11.00;99.90;;;;;;10432947;28;20042;-64
2023/03/22 05:52:39;;;;;;;7.43;3.50;;;11.10;99.90;;;;;;10435450;28;20017;-64
2023/03/22 05:57:40;;;;;;;7.18;3.28;;;11.10;99.90;;;;;;10439028;28;20018;-64
2023/03/22 06:02:42;;;;;;;9.30;3.88;;;11.10;99.90;;;;;;10432124;28;20033;-65
2023/03/22 06:07:43;;;;;;;6.22;3.53;;;11.10;99.90;;;;;;10435787;28;20036;-65
2023/03/22 06:12:44;;;;;;;7.18;3.35;;;11.10;99.90;;;;;;10432642;28;20021;-65
2023/03/22 06:17:45;;;;;;;6.40;3.30;;;11.10;99.90;;;;;;10440123;28;20087;-65
2023/03/22 06:22:46;;;;;;;8.40;3.88;;;11.10;99.90;;;;;;10433266;28;20473;-65
2023/03/22 06:27:47;;;;;;;6.43;3.75;;;11.10;99.90;;;;;;10426767;28;20067;-64
2023/03/22 06:32:48;;;;;;;6.35;3.88;;;11.10;99.90;;;;;;10432958;28;20024;-65
2023/03/22 06:37:48;;;;;;;9.60;4.72;;;11.10;99.90;;;;;;10431940;28;20022;-65
2023/03/22 06:42:49;;;;;;;8.98;3.67;;;11.10;99.90;;;;;;10431159;28;20017;-63
2023/03/22 06:47:50;;;;;;;7.55;4.10;;;11.10;99.90;;;;;;10433997;28;20026;-64
2023/03/22 06:52:50;;;;;;;8.23;3.97;;;11.20;99.90;;;;;;10431214;28;20021;-65
2023/03/22 06:57:51;;;;;;;9.18;4.35;;;11.10;99.90;;;;;;10433125;28;20063;-64
2023/03/22 07:02:51;;;;;;;8.27;4.40;;;11.20;99.90;;;;;;10405057;28;20143;-64
2023/03/22 07:07:52;;;;;;;7.75;3.97;;;11.20;99.90;;;;;;10428855;28;20029;-64
2023/03/22 07:12:52;;;;;;;7.85;3.88;;;11.20;99.90;;;;;;10435396;28;20485;-63
2023/03/22 07:17:53;;;;;;;9.82;4.43;;;11.20;99.90;;;;;;10432012;28;20439;-63
2023/03/22 07:22:54;;;;;;;9.30;4.45;;;11.20;99.90;;;;;;10404826;28;20441;-64
2023/03/22 07:27:55;;;;;;;8.70;4.00;;;11.30;99.90;;;;;;10430609;28;20028;-63
2023/03/22 07:32:56;;;;;;;8.48;3.60;;;11.30;99.90;;;;;;10434897;28;20116;-64
2023/03/22 07:37:58;;;;;;;7.63;3.90;;;11.30;99.90;;;;;;10434547;28;20735;-64
2023/03/22 07:42:59;;;;;;;10.55;3.97;;;11.30;99.90;;;;;;10432619;28;20034;-64
2023/03/22 07:47:59;;;;;;;7.32;3.70;;;11.30;99.90;;;;;;10431827;28;20017;-63
2023/03/22 07:53:02;;;;;;;8.60;3.97;;;11.30;99.90;;;;;;10431261;28;20023;-64
2023/03/22 07:58:04;;;;;;;9.15;4.78;;;11.30;99.90;;;;;;10434533;28;20104;-62
2023/03/22 08:03:05;;;;;;;7.20;3.60;;;11.30;99.90;;;;;;10429133;28;20052;-62
2023/03/22 08:08:05;;;;;;;6.60;3.85;;;11.40;99.90;;;;;;10435249;28;20119;-64
2023/03/22 08:13:06;;;;;;;6.55;3.30;;;11.40;99.90;;;;;;10426588;28;20048;-63
2023/03/22 08:18:07;;;;;;;6.70;3.08;;;11.30;99.90;;;;;;10426060;28;20021;-64
2023/03/22 08:23:11;;;;;;;8.38;3.47;;;11.40;99.90;;;;;;10429802;28;20059;-63
2023/03/22 08:28:13;;;;;;;7.32;2.90;;;11.40;99.90;;;;;;10421259;28;20041;-63
2023/03/22 08:33:14;;;;;;;6.25;3.10;;;11.40;99.90;;;;;;10417096;28;20028;-63
2023/03/22 08:38:15;;;;;;;5.72;2.72;;;11.40;99.90;;;;;;10423314;28;20036;-63
2023/03/22 08:43:16;;;;;;;5.05;2.53;;;11.40;99.90;;;;;;10426877;28;20025;-63
2023/03/22 08:48:17;;;;;;;7.10;3.00;;;11.50;99.90;;;;;;10430580;28;20025;-63
2023/03/22 08:53:18;;;;;;;8.80;3.08;;;11.50;99.90;;;;;;10429347;28;20033;-63
2023/03/22 08:58:19;;;;;;;5.93;2.63;;;11.60;99.90;;;;;;10426099;28;20029;-63
2023/03/22 09:03:20;;;;;;;5.13;2.78;;;11.60;99.90;;;;;;10429573;28;20396;-64
2023/03/22 09:08:20;;;;;;;6.25;3.20;;;11.60;99.90;;;;;;10426484;28;20028;-63
2023/03/22 09:13:21;;;;;;;5.35;2.70;;;11.60;99.90;;;;;;10424123;28;20508;-64
2023/03/22 09:18:23;;;;;;;11.18;2.60;;;11.70;99.90;;;;;;10430057;28;20025;-63
2023/03/22 09:23:23;;;;;;;6.82;2.45;;;11.70;99.90;;;;;;10425239;28;20057;-66
2023/03/22 09:28:25;;;;;;;7.78;2.55;;;11.70;99.90;;;;;;10429836;28;20525;-64
2023/03/22 09:33:25;;;;;;;6.18;2.28;;;11.70;99.90;;;;;;10431455;28;20017;-63
2023/03/22 09:38:26;;;;;;;5.85;2.22;;;11.70;99.90;;;;;;10440473;28;20435;-64
2023/03/22 09:43:31;;;;;;;11.43;2.53;;;11.70;99.90;;;;;;10438909;28;20025;-63
2023/03/22 09:48:41;;;;;;;8.75;3.05;;;11.60;99.90;;;;;;10434525;28;20029;-63
2023/03/22 09:53:41;;;;;;;10.88;2.50;;;11.60;99.90;;;;;;10429368;28;20456;-63
2023/03/22 09:58:54;;;;;;;7.60;2.25;;;11.60;99.90;;;;;;10430774;28;20060;-63
2023/03/22 10:04:11;;;;;;;3.45;2.33;;;11.60;99.90;;;;;;10430733;28;20044;-63
2023/03/22 10:09:25;;;;;;;4.95;1.98;;;11.60;99.90;;;;;;10430910;28;20041;-64
2023/03/22 10:14:41;;;;;;;5.22;2.08;;;11.60;99.90;;;;;;10438142;28;20535;-65
2023/03/22 10:19:54;;;;;;;4.78;1.83;;;11.60;99.90;;;;;;10444631;28;20035;-64
2023/03/22 10:24:56;;;;;;;6.70;2.30;;;11.60;99.90;;;;;;10418138;28;20044;-64
2023/03/22 10:30:19;;;;;;;6.32;2.58;;;11.60;99.90;;;;;;10427482;28;20064;-63
2023/03/22 10:35:20;;;;;;;4.68;1.90;;;11.70;99.90;;;;;;10426214;28;20052;-64
2023/03/22 10:40:33;;;;;;;10.40;2.70;;;11.70;99.90;;;;;;10435184;28;20071;-64
2023/03/22 10:45:35;;;;;;;7.57;2.38;;;11.70;99.90;;;;;;10449982;28;20436;-63
2023/03/22 10:50:40;;;;;;;7.03;2.28;;;11.80;99.90;;;;;;10438949;28;20111;-64
2023/03/22 10:55:42;;;;;;;8.00;2.00;;;11.70;99.90;;;;;;10429583;28;20501;-64
2023/03/22 11:01:03;;;;;;;3.95;1.83;;;12.50;99.90;;;;;;10431800;28;20509;-64
2023/03/22 11:06:35;;;;;;;8.60;2.17;;;11.70;99.90;;;;;;10432009;28;20551;-63
2023/03/22 11:11:57;;;;;;;5.95;1.98;;;11.70;99.90;;;;;;10428757;28;20020;-64
2023/03/22 11:16:59;;;;;;;4.68;2.13;;;11.70;99.90;;;;;;10429162;28;21561;-65
2023/03/22 11:22:02;;;;;;;6.57;2.10;;;11.70;99.90;;;;;;10428319;28;20029;-63
2023/03/22 11:27:24;;;;;;;4.55;1.67;;;11.70;99.90;;;;;;10432504;28;20029;-62
2023/03/22 11:32:36;;;;;;;6.43;2.15;;;11.70;99.90;;;;;;10430014;28;20098;-64
2023/03/22 11:37:46;;;;;;;4.15;1.80;;;11.70;99.90;;;;;;10431134;28;20023;-64
2023/03/22 11:42:50;;;;;;;3.55;1.65;;;11.70;99.90;;;;;;10432686;28;20124;-64
2023/03/22 11:47:52;;;;;;;3.33;2.05;;;11.70;99.90;;;;;;10430785;28;20393;-64
2023/03/22 11:52:53;;;;;;;4.10;1.65;;;11.70;99.90;;;;;;10432958;28;20039;-62
2023/03/22 11:57:54;;;;;;;2.83;1.83;;;11.80;99.90;;;;;;10430225;28;20024;-65
2023/03/22 12:03:34;;;;;;;2.47;1.80;;;11.80;99.90;;;;;;10426947;28;20349;-64
2023/03/22 12:08:49;;;;;;;4.47;1.60;;;11.80;99.90;;;;;;10423045;28;20200;-64
2023/03/22 12:14:15;;;;;;;2.97;1.50;;;11.80;99.90;;;;;;10429367;28;20068;-63
2023/03/22 12:19:38;;;;;;;9.15;2.35;;;11.70;99.90;;;;;;10426797;28;20040;-64
2023/03/22 12:24:39;;;;;;;3.38;1.50;;;11.70;99.90;;;;;;10429590;28;20037;-65
2023/03/22 12:29:46;;;;;;;3.22;1.50;;;11.70;99.90;;;;;;10427276;28;20017;-64
2023/03/22 12:34:48;;;;;;;3.97;1.77;;;11.70;99.90;;;;;;10429530;28;20269;-63
2023/03/22 12:40:04;;;;;;;3.70;1.42;;;11.70;99.90;;;;;;10430389;28;20108;-63
2023/03/22 12:45:14;;;;;;;3.63;1.70;;;11.70;99.90;;;;;;10425850;28;20025;-64
2023/03/22 12:50:22;;;;;;;4.22;1.40;;;11.70;99.90;;;;;;10428243;28;20054;-64
2023/03/22 12:55:32;;;;;;;2.70;1.40;;;11.70;99.90;;;;;;10424003;28;20021;-62
2023/03/22 13:00:37;;;;;;;1.85;1.17;;;11.70;99.90;;;;;;10420359;28;20416;-63
2023/03/22 13:05:37;;;;;;;4.20;1.73;;;11.70;99.90;;;;;;10425884;28;20025;-64
2023/03/22 13:10:46;;;;;;;3.90;1.70;;;11.70;99.90;;;;;;10426499;28;20036;-65
2023/03/22 13:15:55;;;;;;;;;;;11.70;99.90;;;;;;10434010;28;20401;-64
2023/03/22 13:21:16;;;;;;;4.25;1.48;;;11.70;99.90;;;;;;10435784;28;20161;-65
2023/03/22 13:26:18;;;;;;;4.03;1.70;;;11.70;99.90;;;;;;10434241;28;20059;-63
2023/03/22 13:31:35;;;;;;;4.50;1.95;;;11.70;99.90;;;;;;10432836;28;20039;-63
2023/03/22 13:36:36;;;;;;;3.45;1.40;;;11.70;99.90;;;;;;10433878;28;20206;-63
2023/03/22 13:41:37;;;;;;;2.35;1.60;;;11.60;99.90;;;;;;10438137;28;20013;-64
2023/03/22 13:46:43;;;;;;;4.35;1.83;;;11.70;99.90;;;;;;10432220;28;20028;-63
2023/03/22 13:51:44;;;;;;;4.03;1.85;;;11.70;99.90;;;;;;10436825;28;20124;-63
2023/03/22 13:56:51;;;;;;;5.45;1.70;;;11.70;99.90;;;;;;10437218;28;20124;-64
2023/03/22 14:01:59;;;;;;;4.95;1.70;;;11.70;99.90;;;;;;10434798;28;20063;-64
2023/03/22 14:07:11;;;;;;;4.32;1.60;;;11.70;99.90;;;;;;10434318;28;20138;-64
2023/03/22 14:12:34;;;;;;;2.20;1.67;;;11.70;99.90;;;;;;10432443;28;20025;-64
2023/03/22 14:17:43;;;;;;;2.20;1.75;;;11.70;99.90;;;;;;10433495;28;20403;-64
2023/03/22 14:22:57;;;;;;;5.13;2.10;;;11.70;99.90;;;;;;10434497;28;20111;-64
2023/03/22 14:27:58;;;;;;;2.78;1.83;;;11.70;99.90;;;;;;10437471;28;20021;-64
2023/03/22 14:33:14;;;;;;;5.00;1.92;;;11.70;99.90;;;;;;10430658;28;20570;-65
2023/03/22 14:38:17;;;;;;;4.60;1.80;;;11.70;99.90;;;;;;10435194;28;20361;-64
2023/03/22 14:43:18;;;;;;;2.65;1.90;;;11.70;99.90;;;;;;10434321;28;20578;-64
2023/03/22 14:48:22;;;;;;;3.47;2.25;;;11.70;99.90;;;;;;10432863;28;20116;-64
2023/03/22 14:53:31;;;;;;;2.05;1.70;;;11.70;99.90;;;;;;10433118;28;20012;-64
2023/03/22 14:58:35;;;;;;;4.57;2.00;;;11.80;99.90;;;;;;10431742;28;20029;-64
2023/03/22 15:03:36;;;;;;;4.38;1.80;;;11.70;99.90;;;;;;10428787;28;20396;-64
2023/03/22 15:08:37;;;;;;;2.80;1.80;;;11.70;99.90;;;;;;10432469;28;20032;-64
2023/03/22 15:13:39;;;;;;;4.13;1.90;;;11.80;99.90;;;;;;10434104;28;20024;-64
2023/03/22 15:18:41;;;;;;;4.72;1.70;;;11.70;99.90;;;;;;10430107;28;20513;-64
2023/03/22 15:24:31;;;;;;;2.90;2.10;;;11.80;99.90;;;;;;10424171;28;20051;-64
2023/03/22 15:29:34;;;;;;;2.85;1.70;;;11.80;99.90;;;;;;10409008;28;20398;-62
2023/03/22 15:34:37;;;;;;;4.57;1.90;;;11.80;99.90;;;;;;10432645;28;20056;-63
2023/03/22 15:39:40;;;;;;;4.10;2.00;;;11.80;99.90;;;;;;10434382;28;20449;-65
2023/03/22 15:44:48;;;;;;;4.88;2.00;;;11.80;99.90;;;;;;10429537;28;20037;-65
2023/03/22 15:49:56;;;;;;;3.73;1.83;;;11.80;99.90;;;;;;10428161;28;20056;-64
2023/03/22 15:55:02;;;;;;;4.55;2.22;;;11.80;99.90;;;;;;10432202;28;20041;-64
2023/03/22 16:00:08;;;;;;;3.70;1.77;;;11.70;99.90;;;;;;10430569;28;20124;-63
2023/03/22 16:05:10;;;;;;;2.88;1.75;;;11.70;99.90;;;;;;10427883;28;20515;-64
2023/03/22 16:10:20;;;;;;;6.32;2.30;;;11.70;99.90;;;;;;10429272;28;20091;-65
2023/03/22 16:15:23;;;;;;;3.75;2.35;;;11.70;99.90;;;;;;10430214;28;20047;-64
2023/03/22 16:20:32;;;;;;;3.03;2.00;;;11.70;99.90;;;;;;10430616;28;20044;-62
2023/03/22 16:25:33;;;;;;;3.40;2.40;;;11.70;99.90;;;;;;10420327;28;20520;-65
2023/03/22 16:30:34;;;;;;;6.45;3.20;;;11.70;99.90;;;;;;10423408;28;20036;-65
2023/03/22 16:35:35;;;;;;;6.88;2.80;;;11.70;99.90;;;;;;10430363;28;20049;-64
2023/03/22 16:40:36;;;;;;;10.45;3.20;;;11.60;99.90;;;;;;10426957;28;20144;-65
2023/03/22 16:45:36;;;;;;;5.07;3.10;;;11.60;99.90;;;;;;10435607;28;20068;-64
2023/03/22 16:50:40;;;;;;;8.00;4.05;;;11.70;99.90;;;;;;10435663;28;20179;-64
2023/03/22 16:55:42;;;;;;;7.35;3.15;;;11.70;99.90;;;;;;10439894;28;20500;-64
2023/03/22 17:00:43;;;;;;;6.20;3.17;;;11.60;99.90;;;;;;10434863;28;20117;-65
2023/03/22 17:05:43;;;;;;;5.65;3.30;;;11.70;99.90;;;;;;10435926;28;20487;-64
2023/03/22 17:10:45;;;;;;;6.53;2.92;;;11.70;99.90;;;;;;10435814;28;20033;-63
2023/03/22 17:15:49;;;;;;;5.60;3.13;;;11.60;99.90;;;;;;10437115;28;20025;-64
2023/03/22 17:20:49;;;;;;;7.45;3.10;;;11.70;99.90;;;;;;10438412;28;20044;-63
2023/03/22 17:25:51;;;;;;;6.28;3.47;;;11.70;99.90;;;;;;10426518;28;20151;-64
2023/03/22 17:30:52;;;;;;;5.88;3.22;;;11.70;99.90;;;;;;10431771;28;20533;-64
2023/03/22 17:35:52;;;;;;;4.60;2.72;;;11.70;99.90;;;;;;10431367;28;20067;-64
2023/03/22 17:40:53;;;;;;;4.03;2.70;;;11.70;99.90;;;;;;10436628;28;20032;-64
2023/03/22 17:45:54;;;;;;;7.32;2.70;;;11.70;99.90;;;;;;10433098;28;20056;-65
2023/03/22 17:50:55;;;;;;;5.90;2.83;;;11.70;99.90;;;;;;10436740;28;20043;-64
2023/03/22 17:55:56;;;;;;;4.95;3.03;;;11.70;99.90;;;;;;10434343;28;20070;-63
2023/03/22 18:00:56;;;;;;;6.05;3.28;;;11.80;99.90;;;;;;10424384;28;20453;-64
2023/03/22 18:05:57;;;;;;;6.07;3.50;;;11.70;99.90;;;;;;10432272;28;20025;-64
2023/03/22 18:10:58;;;;;;;4.32;3.03;;;11.70;99.90;;;;;;10432508;28;20033;-64
2023/03/22 18:16:00;;;;;;;4.82;3.20;;;11.70;99.90;;;;;;10432132;28;20028;-63
2023/03/22 18:21:06;;;;;;;6.13;3.35;;;11.70;99.90;;;;;;10427989;28;20094;-63
2023/03/22 18:26:08;;;;;;;9.43;3.38;;;11.70;99.90;;;;;;10439889;28;20436;-64
2023/03/22 18:31:12;;;;;;;5.60;3.35;;;11.70;99.90;;;;;;10432750;28;20071;-64
2023/03/22 18:36:13;;;;;;;5.18;3.17;;;11.60;99.90;;;;;;10432954;28;20111;-64
2023/03/22 18:41:17;;;;;;;4.38;2.67;;;11.70;99.90;;;;;;10434892;28;20191;-62
2023/03/22 18:46:18;;;;;;;5.47;3.17;;;11.70;99.90;;;;;;10432675;28;20035;-63
2023/03/22 18:51:19;;;;;;;4.45;3.10;;;11.60;99.90;;;;;;10427301;28;20032;-63
2023/03/22 18:56:20;;;;;;;4.88;3.22;;;11.60;99.90;;;;;;10427207;28;20029;-63
2023/03/22 19:01:21;;;;;;;4.20;2.75;;;11.60;99.90;;;;;;10426042;28;20036;-64
2023/03/22 19:06:22;;;;;;;5.22;3.10;;;11.60;99.90;;;;;;10436193;28;20614;-64
2023/03/22 19:11:22;;;;;;;3.83;2.60;;;11.60;99.90;;;;;;10438319;28;20029;-65
2023/03/22 19:16:23;;;;;;;4.82;3.05;;;11.60;99.90;;;;;;10432750;28;20010;-64
2023/03/22 19:21:23;;;;;;;3.85;2.95;;;11.60;99.90;;;;;;10424593;28;20107;-64
2023/03/22 19:26:26;;;;;;;5.13;3.20;;;11.60;99.90;;;;;;10425887;28;20071;-64
2023/03/22 19:31:27;;;;;;;3.08;2.50;;;11.60;99.90;;;;;;10432899;28;20078;-63
2023/03/22 19:36:29;;;;;;;3.67;2.72;;;11.60;99.90;;;;;;10428413;28;20261;-63
2023/03/22 19:41:29;;;;;;;4.72;2.88;;;11.60;99.90;;;;;;10432803;28;20041;-64
2023/03/22 19:46:30;;;;;;;3.83;3.03;;;11.60;99.90;;;;;;10431183;28;20119;-63
2023/03/22 19:51:31;;;;;;;4.35;3.10;;;11.60;99.90;;;;;;10434176;28;20024;-63
2023/03/22 19:56:33;;;;;;;4.65;3.05;;;11.60;99.90;;;;;;10430702;28;20404;-63
2023/03/22 20:01:35;;;;;;;3.67;2.88;;;11.60;99.90;;;;;;10434213;28;20029;-63
2023/03/22 20:06:35;;;;;;;4.30;2.88;;;11.60;99.90;;;;;;10430662;28;20520;-63
2023/03/22 20:11:36;;;;;;;4.22;3.40;;;11.60;99.90;;;;;;10428098;28;20048;-63
2023/03/22 20:16:37;;;;;;;4.60;3.15;;;11.60;99.90;;;;;;10417257;28;20023;-64
2023/03/22 20:21:40;;;;;;;5.85;3.58;;;11.60;99.90;;;;;;10423413;28;20735;-64
2023/03/22 20:26:40;;;;;;;5.57;3.13;;;11.60;99.90;;;;;;10426984;28;20042;-63
2023/03/22 20:31:41;;;;;;;4.00;3.10;;;11.60;99.90;;;;;;10432512;28;20029;-64
2023/03/22 20:36:42;;;;;;;5.05;3.30;;;11.60;99.90;;;;;;10428774;28;20029;-64
2023/03/22 20:41:44;;;;;;;4.88;3.00;;;11.60;99.90;;;;;;10427714;28;20025;-64
2023/03/22 20:46:44;;;;;;;5.55;3.30;;;11.60;99.90;;;;;;10430524;28;20028;-63
2023/03/22 20:51:45;;;;;;;5.22;3.53;;;11.60;99.90;;;;;;10432772;28;20017;-63
2023/03/22 20:56:46;;;;;;;4.68;3.78;;;11.60;99.90;;;;;;10435627;28;20112;-63
2023/03/22 21:01:46;;;;;;;8.45;3.88;;;12.40;99.90;;;;;;10423843;28;20032;-64
2023/03/22 21:06:47;;;;;;;4.97;3.55;;;11.60;99.90;;;;;;10431381;28;20025;-64
2023/03/22 21:11:48;;;;;;;6.30;3.60;;;11.60;99.90;;;;;;10428915;28;20022;-63
2023/03/22 21:16:49;;;;;;;5.82;4.10;;;11.60;99.90;;;;;;10423885;28;20424;-62
2023/03/22 21:21:49;;;;;;;5.85;4.10;;;11.60;99.90;;;;;;10430962;28;20370;-64
2023/03/22 21:26:50;;;;;;;9.50;4.45;;;11.60;99.90;;;;;;10424389;28;20100;-64
2023/03/22 21:31:53;;;;;;;7.10;4.18;;;11.60;99.90;;;;;;10422053;28;20072;-64
2023/03/22 21:36:56;;;;;;;6.22;4.07;;;11.60;99.90;;;;;;10432695;28;20104;-63
2023/03/22 21:42:00;;;;;;;4.93;4.20;;;11.60;99.90;;;;;;10432572;28;20037;-64
2023/03/22 21:47:04;;;;;;;6.32;4.13;;;11.60;99.90;;;;;;10430374;28;20379;-62
2023/03/22 21:52:05;;;;;;;7.00;4.63;;;11.60;99.90;;;;;;10437531;28;20021;-63
2023/03/22 21:57:07;;;;;;;5.72;4.10;;;11.60;99.90;;;;;;10436061;28;20482;-64
2023/03/22 22:02:09;;;;;;;6.03;4.10;;;11.60;99.90;;;;;;10438304;28;20040;-64
2023/03/22 22:07:13;;;;;;;5.20;4.00;;;11.60;99.90;;;;;;10434886;28;20035;-64
2023/03/22 22:12:15;;;;;;;7.10;4.38;;;11.60;99.90;;;;;;10432636;28;20025;-63
2023/03/22 22:17:15;;;;;;;6.97;4.25;;;11.60;99.90;;;;;;10429153;28;20028;-64
2023/03/22 22:22:16;;;;;;;8.05;4.45;;;12.10;99.90;;;;;;10428013;28;20025;-64
2023/03/22 22:27:17;;;;;;;6.78;4.45;;;11.60;99.90;;;;;;10426611;28;20110;-63
2023/03/22 22:32:18;;;;;;;10.60;4.38;;;11.60;99.90;;;;;;10426236;28;20079;-63
2023/03/22 22:37:18;;;;;;;6.07;3.97;;;11.70;99.90;;;;;;10427897;28;20485;-64
2023/03/22 22:42:19;;;;;;;6.72;4.20;;;11.70;99.90;;;;;;10427677;28;20027;-64
2023/03/22 22:47:20;;;;;;;5.13;3.80;;;11.70;99.90;;;;;;10431620;28;20041;-62
2023/03/22 22:52:20;;;;;;;6.63;4.32;;;11.70;99.90;;;;;;10434747;28;20059;-63
2023/03/22 22:57:21;;;;;;;7.22;4.40;;;11.70;99.90;;;;;;10432100;28;20436;-63
2023/03/22 23:02:22;;;;;;;5.82;4.35;;;11.70;99.90;;;;;;10433476;28;20028;-63
2023/03/22 23:07:22;;;;;;;6.53;4.35;;;11.70;99.90;;;;;;10427790;28;20216;-64
2023/03/22 23:12:23;;;;;;;6.63;4.05;;;11.70;99.90;;;;;;10430139;28;20052;-63
2023/03/22 23:17:24;;;;;;;7.22;4.43;;;11.70;99.90;;;;;;10433425;28;20024;-63
2023/03/22 23:22:29;;;;;;;4.55;3.60;;;11.60;99.90;;;;;;10427973;28;20569;-62
2023/03/22 23:27:31;;;;;;;8.40;4.32;;;11.70;99.90;;;;;;10430554;28;20029;-64
2023/03/22 23:32:33;;;;;;;7.25;4.00;;;11.70;99.90;;;;;;10433816;28;20029;-63
2023/03/22 23:37:35;;;;;;;6.78;4.28;;;11.70;99.90;;;;;;10425841;28;20042;-64
2023/03/22 23:42:39;;;;;;;7.15;4.40;;;11.70;99.90;;;;;;10430832;28;20342;-64
2023/03/22 23:47:40;;;;;;;6.10;4.13;;;11.70;99.90;;;;;;10435604;28;20485;-64
2023/03/22 23:52:41;;;;;;;8.30;4.60;;;11.70;99.90;;;;;;10435635;28;20033;-63
2023/03/22 23:57:42;;;;;;;6.82;4.15;;;11.80;99.90;;;;;;10434229;28;20079;-63
